KSSF/SSF METAR and TAF weather

Enter ICAO airport designator
Station Type Date Time Source
KSSF METAR 2022/09/26 08:53 UTC NOAA

KSSF 260853Z AUTO 00000KT 10SM CLR 23/21 A2997 RMK AO2 SLP134 T02330206 58005 $


Station Type Date Time Source
KSSF Decoded METAR 2022/09/26 08:53 UTC NOAA

SAN ANTONIO STINSON MUNI, TX, United States (KSSF) 29-20N 098-28W 176M
Sep 26, 2022 - 04:53 AM EDT / 2022.09.26 0853 UTC
Wind: Calm:0
Visibility: 10 mile(s):0
Sky conditions: clear
Temperature: 73.9 F (23.3 C)
Dew Point: 69.1 F (20.6 C)
Relative Humidity: 84%
Pressure (altimeter): 29.97 in. Hg (1014 hPa)
Pressure tendency: 0.01 inches (0.5 hPa) lower than three hours ago
ob: KSSF 260853Z AUTO 00000KT 10SM CLR 23/21 A2997 RMK AO2 SLP134 T02330206 58005
cycle: 9

Station Type Date Time Source
KSSF TAF 2022/09/26 06:22 UTC NOAA

TAF KSSF 260520Z 2606/2706 VRB03KT P6SM FEW250
FM261000 35006KT P6SM FEW250
FM261700 04010G20KT P6SM FEW250
FM270000 04007KT P6SM FEW250

Example: see airport list